sensor_id;sensor_type;location;lat;lon;timestamp;pressure;altitude;pressure_sealevel;temperature;humidity
55014;BME280;40916;51.632;5.552;2022-08-21T00:00:47;1013.3067295382364;;;14.380789519756345;0
55014;BME280;40916;51.632;5.552;2022-08-21T00:01:47;1013.37222997747;;;14.361023873286097;0
55014;BME280;40916;51.632;5.552;2022-08-21T00:02:48;1013.3575918580505;;;14.308299516411008;0
55014;BME280;40916;51.632;5.552;2022-08-21T00:03:47;1013.3233107825571;;;14.2951147938094;0
55014;BME280;40916;51.632;5.552;2022-08-21T00:04:47;1013.3140920131796;;;14.268740982487191;0
55014;BME280;40916;51.632;5.552;2022-08-21T00:05:48;1013.304850125568;;;14.242361343891627;0
55014;BME280;40916;51.632;5.552;2022-08-21T00:06:48;1013.2955850992802;;;14.215975871075432;0
55014;BME280;40916;51.632;5.552;2022-08-21T00:07:47;1013.3090214115797;;;14.19618293357054;0
55014;BME280;40916;51.632;5.552;2022-08-21T00:08:48;1013.2950526095399;;;14.156587189809919;0
55014;BME280;40916;51.632;5.552;2022-08-21T00:09:48;1013.2797387066544;;;14.1499866186284;0
55014;BME280;40916;51.632;5.552;2022-08-21T00:10:48;1013.1581650724877;;;14.110375498271594;0
55014;BME280;40916;51.632;5.552;2022-08-21T00:11:48;1013.2558337419238;;;14.077356144754408;0
55014;BME280;40916;51.632;5.552;2022-08-21T00:12:48;1013.2380011842555;;;14.037720796172145;0
55014;BME280;40916;51.632;5.552;2022-08-21T00:13:48;1013.2577054395033;;;14.004681219273596;0
55014;BME280;40916;51.632;5.552;2022-08-21T00:14:48;1013.2344327196173;;;13.991462809240431;0
55014;BME280;40916;51.632;5.552;2022-08-21T00:15:49;1013.2583113246832;;;13.965021562711502;0
55014;BME280;40916;51.632;5.552;2022-08-21T00:16:49;1013.2117284283823;;;13.938574408344273;0
55014;BME280;40916;51.632;5.552;2022-08-21T00:17:49;1013.2249685325029;;;13.918735161293938;0
55014;BME280;40916;51.632;5.552;2022-08-21T00:18:49;1013.1741049137373;;;13.88566234778095;0
55014;BME280;40916;51.632;5.552;2022-08-21T00:19:49;1013.1989705301867;;;13.872430629171763;0
55014;BME280;40916;51.632;5.552;2022-08-21T00:20:49;1013.1878509207535;;;13.872430629171763;0
55014;BME280;40916;51.632;5.552;2022-08-21T00:21:49;1013.2217512708258;;;13.879046673816191;0
55014;BME280;40916;51.632;5.552;2022-08-21T00:22:49;1013.2434489788095;;;13.872430629171763;0
55014;BME280;40916;51.632;5.552;2022-08-21T00:23:49;1013.1852248407853;;;13.88566234778095;0
55014;BME280;40916;51.632;5.552;2022-08-21T00:24:49;1013.1629849877783;;;13.88566234778095;0
55014;BME280;40916;51.632;5.552;2022-08-21T00:25:49;1013.1529384947595;;;13.898892584115512;0
55014;BME280;40916;51.632;5.552;2022-08-21T00:26:50;1013.1900059786735;;;13.898892584115512;0
55014;BME280;40916;51.632;5.552;2022-08-21T00:27:50;1013.1540058620405;;;13.91212133906308;0
55014;BME280;40916;51.632;5.552;2022-08-21T00:28:50;1013.1926656897186;;;13.931961695823802;0
55014;BME280;40916;51.632;5.552;2022-08-21T00:29:50;1013.1810158934552;;;13.925348613510593;0
55014;BME280;40916;51.632;5.552;2022-08-21T00:30:50;1013.0952267712669;;;13.918735161293938;0
55014;BME280;40916;51.632;5.552;2022-08-21T00:31:50;1013.1931930870503;;;13.938574408344273;0
55014;BME280;40916;51.632;5.552;2022-08-21T00:32:50;1013.2429601617906;;;13.958410328255738;0
55014;BME280;40916;51.632;5.552;2022-08-21T00:33:50;1013.2916768730875;;;13.965021562711502;0
55014;BME280;40916;51.632;5.552;2022-08-21T00:34:50;1013.1926656897186;;;13.931961695823802;0
55014;BME280;40916;51.632;5.552;2022-08-21T00:35:51;1013.1667165890173;;;13.931961695823802;0
55014;BME280;40916;51.632;5.552;2022-08-21T00:36:51;1013.1969001550747;;;13.938574408344273;0
55014;BME280;40916;51.632;5.552;2022-08-21T00:37:51;1013.1179975690249;;;13.925348613510593;0
55014;BME280;40916;51.632;5.552;2022-08-21T00:38:51;1013.174657748744;;;13.938574408344273;0
55014;BME280;40916;51.632;5.552;2022-08-21T00:39:51;1013.1561224134638;;;13.938574408344273;0
55014;BME280;40916;51.632;5.552;2022-08-21T00:40:52;1013.1259394427545;;;13.931961695823802;0
55014;BME280;40916;51.632;5.552;2022-08-21T00:41:51;1013.1598294802777;;;13.938574408344273;0
55014;BME280;40916;51.632;5.552;2022-08-21T00:42:51;1013.1227588175844;;;13.938574408344273;0
55014;BME280;40916;51.632;5.552;2022-08-21T00:43:51;1013.0036080918352;;;13.931961695823802;0
55014;BME280;40916;51.632;5.552;2022-08-21T00:44:51;1013.0454342224087;;;13.945186751182678;0
55014;BME280;40916;51.632;5.552;2022-08-21T00:45:52;1013.0237134513869;;;13.951798724449642;0
55014;BME280;40916;51.632;5.552;2022-08-21T00:46:52;1013.0501844182869;;;13.958410328255738;0
55014;BME280;40916;51.632;5.552;2022-08-21T00:47:52;1013.0628598371065;;;13.97824292401397;0
55014;BME280;40916;51.632;5.552;2022-08-21T00:48:52;1013.0411301177037;;;13.984853051081515;0
55014;BME280;40916;51.632;5.552;2022-08-21T00:49:52;1013.0188855105894;;;13.984853051081515;0
55014;BME280;40916;51.632;5.552;2022-08-21T00:50:53;1013.004568305106;;;13.991462809240431;0
55014;BME280;40916;51.632;5.552;2022-08-21T00:51:53;1013.0537875515462;;;14.004681219273596;0
55014;BME280;40916;51.632;5.552;2022-08-21T00:52:52;1013.0585111170855;;;14.017898154995446;0
55014;BME280;40916;51.632;5.552;2022-08-21T00:53:53;1013.002895615715;;;14.017898154995446;0
55014;BME280;40916;51.632;5.552;2022-08-21T00:54:53;1012.9208209982714;;;14.011289871368337;0
55014;BME280;40916;51.632;5.552;2022-08-21T00:55:53;1013.0187351751421;;;14.031113617287279;0
55014;BME280;40916;51.632;5.552;2022-08-21T00:56:54;1012.9853649269332;;;14.031113617287279;0
55014;BME280;40916;51.632;5.552;2022-08-21T00:57:54;1013.0837709170212;;;14.05754012510252;0
55014;BME280;40916;51.632;5.552;2022-08-21T00:58:53;1013.1218446506319;;;14.070751172384998;0
55014;BME280;40916;51.632;5.552;2022-08-21T00:59:54;1013.0313608939107;;;14.050934049969825;0
55014;BME280;40916;51.632;5.552;2022-08-21T01:00:53;1013.069930873206;;;14.070751172384998;0
55014;BME280;40916;51.632;5.552;2022-08-21T01:01:53;1013.0847633786199;;;14.070751172384998;0
55014;BME280;40916;51.632;5.552;2022-08-21T01:02:53;1013.0714076228069;;;14.09056498749828;0
55014;BME280;40916;51.632;5.552;2022-08-21T01:03:53;1013.1201052696337;;;14.0971688580921;0
55014;BME280;40916;51.632;5.552;2022-08-21T01:04:54;1013.1168852968005;;;14.103772361646683;0
55014;BME280;40916;51.632;5.552;2022-08-21T01:05:54;1013.1386469714213;;;14.0971688580921;0
55014;BME280;40916;51.632;5.552;2022-08-21T01:06:54;1013.1275219499853;;;14.0971688580921;0
55014;BME280;40916;51.632;5.552;2022-08-21T01:07:54;1013.1238136097489;;;14.0971688580921;0
55014;BME280;40916;51.632;5.552;2022-08-21T01:08:54;1013.0889655277098;;;14.077356144754408;0
55014;BME280;40916;51.632;5.552;2022-08-21T01:09:54;1013.1136637120004;;;14.110375498271594;0
55014;BME280;40916;51.632;5.552;2022-08-21T01:10:54;1013.1539692330467;;;14.103772361646683;0
55014;BME280;40916;51.632;5.552;2022-08-21T01:11:54;1013.0227098702344;;;14.083960749755597;0
55014;BME280;40916;51.632;5.552;2022-08-21T01:12:54;1013.0852573479574;;;14.077356144754408;0
55014;BME280;40916;51.632;5.552;2022-08-21T01:13:54;1013.0788241938332;;;14.09056498749828;0
55014;BME280;40916;51.632;5.552;2022-08-21T01:14:55;1013.1052719103837;;;14.0971688580921;0
55014;BME280;40916;51.632;5.552;2022-08-21T01:15:55;1013.1386469714213;;;14.0971688580921;0
55014;BME280;40916;51.632;5.552;2022-08-21T01:16:55;1013.115907056232;;;14.09056498749828;0
55014;BME280;40916;51.632;5.552;2022-08-21T01:17:55;1013.0978552314855;;;14.0971688580921;0
55014;BME280;40916;51.632;5.552;2022-08-21T01:18:55;1013.1628439998946;;;14.123580671170465;0
55014;BME280;40916;51.632;5.552;2022-08-21T01:19:57;1013.1368841268759;;;14.123580671170465;0
55014;BME280;40916;51.632;5.552;2022-08-21T01:20:58;1013.1712257798689;;;14.136784377664402;0
55014;BME280;40916;51.632;5.552;2022-08-21T01:21:55;1013.1276792487529;;;14.1499866186284;0
55014;BME280;40916;51.632;5.552;2022-08-21T01:22:55;1013.1175040033756;;;14.163187394936763;0
55014;BME280;40916;51.632;5.552;2022-08-21T01:23:56;1013.092956099446;;;14.18298581508079;0
55014;BME280;40916;51.632;5.552;2022-08-21T01:24:56;1013.0906475804958;;;14.20278094466055;0
55014;BME280;40916;51.632;5.552;2022-08-21T01:25:56;1013.0350097759148;;;14.20278094466055;0
55014;BME280;40916;51.632;5.552;2022-08-21T01:26:56;1013.0535557077457;;;14.20278094466055;0
55014;BME280;40916;51.632;5.552;2022-08-21T01:27:56;1013.0549411173084;;;14.22257278661801;0
55014;BME280;40916;51.632;5.552;2022-08-21T01:28:57;1013.0359343523335;;;14.215975871075432;0
55014;BME280;40916;51.632;5.552;2022-08-21T01:29:57;1012.9719536303487;;;14.20278094466055;0
55014;BME280;40916;51.632;5.552;2022-08-21T01:30:56;1013.0646832682984;;;14.20278094466055;0
55014;BME280;40916;51.632;5.552;2022-08-21T01:31:57;1013.121248103689;;;14.215975871075432;0
55014;BME280;40916;51.632;5.552;2022-08-21T01:32:57;1013.0748790826283;;;14.189584557080273;0
55014;BME280;40916;51.632;5.552;2022-08-21T01:33:57;1013.0405605567917;;;14.176386707463084;0
55014;BME280;40916;51.632;5.552;2022-08-21T01:34:57;1013.0433266167425;;;14.163187394936763;0
55014;BME280;40916;51.632;5.552;2022-08-21T01:35:57;1013.0905916069863;;;14.1499866186284;0
55014;BME280;40916;51.632;5.552;2022-08-21T01:36:57;1013.034005439057;;;14.136784377664402;0
55014;BME280;40916;51.632;5.552;2022-08-21T01:37:57;1013.0367532436891;;;14.123580671170465;0
55014;BME280;40916;51.632;5.552;2022-08-21T01:38:57;1012.960159115547;;;14.09056498749828;0
55014;BME280;40916;51.632;5.552;2022-08-21T01:39:57;1013.0709168799162;;;14.083960749755597;0
55014;BME280;40916;51.632;5.552;2022-08-21T01:40:57;1013.0291414933088;;;14.070751172384998;0
55014;BME280;40916;51.632;5.552;2022-08-21T01:41:57;1013.0286468129253;;;14.064145832537633;0
55014;BME280;40916;51.632;5.552;2022-08-21T01:42:58;1012.9616050829812;;;14.011289871368337;0
55014;BME280;40916;51.632;5.552;2022-08-21T01:43:58;1013.0463723625215;;;14.004681219273596;0
55014;BME280;40916;51.632;5.552;2022-08-21T01:44:58;1013.0713030871843;;;13.991462809240431;0
55014;BME280;40916;51.632;5.552;2022-08-21T01:45:58;1013.121141950923;;;13.965021562711502;0
55014;BME280;40916;51.632;5.552;2022-08-21T01:46:59;1013.0946710992754;;;13.958410328255738;0
55014;BME280;40916;51.632;5.552;2022-08-21T01:47:58;1013.0809279827577;;;13.925348613510593;0
55014;BME280;40916;51.632;5.552;2022-08-21T01:48:58;1013.092020675184;;;13.879046673816191;0
55014;BME280;40916;51.632;5.552;2022-08-21T01:49:59;1013.0770925555896;;;13.83272657080936;0
55014;BME280;40916;51.632;5.552;2022-08-21T01:50:59;1013.0991506351177;;;13.786388266348744;0
55014;BME280;40916;51.632;5.552;2022-08-21T01:51:59;1013.0931912954335;;;13.759901048432088;0
55014;BME280;40916;51.632;5.552;2022-08-21T01:52:59;1013.0718133387303;;;13.726783639768325;0
55014;BME280;40916;51.632;5.552;2022-08-21T01:53:59;1013.0583905978688;;;13.700282995090255;0
55014;BME280;40916;51.632;5.552;2022-08-21T01:54:59;1013.0055426300771;;;13.647263761225375;0
55014;BME280;40916;51.632;5.552;2022-08-21T01:55:59;1013.0562217064813;;;13.634005209074171;0
55014;BME280;40916;51.632;5.552;2022-08-21T01:57:00;1013.0797601109783;;;13.607483606043633;0
55014;BME280;40916;51.632;5.552;2022-08-21T01:57:59;1013.0168579785123;;;13.5676899411372;0
55014;BME280;40916;51.632;5.552;2022-08-21T01:58:59;1013.0693466782626;;;13.53451821617653;0
55014;BME280;40916;51.632;5.552;2022-08-21T02:00:00;1013.0372321903324;;;13.507974059627099;0
55014;BME280;40916;51.632;5.552;2022-08-21T02:01:00;1012.9674326539537;;;13.474785381299675;0
55014;BME280;40916;51.632;5.552;2022-08-21T02:02:00;1012.9339961675335;;;13.434946507340058;0
55014;BME280;40916;51.632;5.552;2022-08-21T02:03:00;1012.9642595205736;;;13.441587264552364;0
55014;BME280;40916;51.632;5.552;2022-08-21T02:04:00;1013.0204440526226;;;13.448227643658438;0
55014;BME280;40916;51.632;5.552;2022-08-21T02:05:00;1012.9265901411796;;;13.434946507340058;0
55014;BME280;40916;51.632;5.552;2022-08-21T02:06:00;1012.9549313585414;;;13.421663858140533;0
55014;BME280;40916;51.632;5.552;2022-08-21T02:07:01;1012.9216051978536;;;13.421663858140533;0
55014;BME280;40916;51.632;5.552;2022-08-21T02:08:01;1012.9098533646975;;;13.415021965925089;0
55014;BME280;40916;51.632;5.552;2022-08-21T02:09:01;1012.898744807845;;;13.415021965925089;0
55014;BME280;40916;51.632;5.552;2022-08-21T02:10:01;1012.8728248460827;;;13.415021965925089;0
55014;BME280;40916;51.632;5.552;2022-08-21T02:11:01;1012.9364168236184;;;13.421663858140533;0
55014;BME280;40916;51.632;5.552;2022-08-21T02:12:01;1012.8394991896547;;;13.415021965925089;0
55014;BME280;40916;51.632;5.552;2022-08-21T02:13:01;1012.8623587141168;;;13.421663858140533;0
55014;BME280;40916;51.632;5.552;2022-08-21T02:14:01;1012.8839334003992;;;13.415021965925089;0
55014;BME280;40916;51.632;5.552;2022-08-21T02:15:02;1012.8832891184433;;;13.40837969514697;0
55014;BME280;40916;51.632;5.552;2022-08-21T02:16:01;1012.9240199064443;;;13.40837969514697;0
55014;BME280;40916;51.632;5.552;2022-08-21T02:17:02;1012.904859767064;;;13.401737045691945;0
55014;BME280;40916;51.632;5.552;2022-08-21T02:18:02;1012.9177224324152;;;13.381806824122481;0
55014;BME280;40916;51.632;5.552;2022-08-21T02:19:02;1012.8312588550027;;;13.368518114262091;0
55014;BME280;40916;51.632;5.552;2022-08-21T02:20:02;1012.8632698817386;;;13.355227886948732;0
55014;BME280;40916;51.632;5.552;2022-08-21T02:21:03;1012.8013943286561;;;13.328642876296083;0
55014;BME280;40916;51.632;5.552;2022-08-21T02:22:02;1012.8680331402084;;;13.328642876296083;0
55014;BME280;40916;51.632;5.552;2022-08-21T02:23:03;1012.7919958910661;;;13.308700128170159;0
55014;BME280;40916;51.632;5.552;2022-08-21T02:24:03;1012.8364198352681;;;13.308700128170159;0
55014;BME280;40916;51.632;5.552;2022-08-21T02:25:02;1012.7913280905962;;;13.302051784823067;0
55014;BME280;40916;51.632;5.552;2022-08-21T02:26:03;1012.8034483341958;;;13.275454605176389;0
55014;BME280;40916;51.632;5.552;2022-08-21T02:27:03;1012.7919678019831;;;13.235547404266232;0
55014;BME280;40916;51.632;5.552;2022-08-21T02:28:04;1012.8063403714657;;;13.195626463483379;0
55014;BME280;40916;51.632;5.552;2022-08-21T02:29:04;1012.742937799919;;;13.155691757859906;0
55014;BME280;40916;51.632;5.552;2022-08-21T02:30:03;1012.7587568025538;;;13.095763835582215;0
55014;BME280;40916;51.632;5.552;2022-08-21T02:31:03;1012.8573005566758;;;13.049131724222015;0
55014;BME280;40916;51.632;5.552;2022-08-21T02:32:03;1012.8344010242519;;;13.00914633292166;0
55014;BME280;40916;51.632;5.552;2022-08-21T02:33:03;1012.82324372536;;;12.942473152343368;0
55014;BME280;40916;51.632;5.552;2022-08-21T02:34:03;1012.738728001535;;;12.882434222741537;0
55014;BME280;40916;51.632;5.552;2022-08-21T02:35:04;1012.785098355313;;;12.835715562399027;0
55014;BME280;40916;51.632;5.552;2022-08-21T02:36:04;1012.7677283739592;;;12.782299484854398;0
55014;BME280;40916;51.632;5.552;2022-08-21T02:37:04;1012.7983256635754;;;12.728858471443694;0
55014;BME280;40916;51.632;5.552;2022-08-21T02:38:05;1012.738018948253;;;12.68876131061997;0
55014;BME280;40916;51.632;5.552;2022-08-21T02:39:04;1012.7372078493768;;;12.621901393386295;0
55014;BME280;40916;51.632;5.552;2022-08-21T02:40:04;1012.719096472781;;;12.595146443621854;0
55014;BME280;40916;51.632;5.552;2022-08-21T02:41:05;1012.7794194913762;;;12.575076105590842;0
55014;BME280;40916;51.632;5.552;2022-08-21T02:42:04;1012.6535337323654;;;12.514843838964342;0
55014;BME280;40916;51.632;5.552;2022-08-21T02:43:05;1012.7351042718086;;;12.488063693287383;0
55014;BME280;40916;51.632;5.552;2022-08-21T02:44:04;1012.7481615949072;;;12.47467125158408;0
55014;BME280;40916;51.632;5.552;2022-08-21T02:45:05;1012.6744874059667;;;12.447881625613125;0
55014;BME280;40916;51.632;5.552;2022-08-21T02:46:05;1012.6331740344201;;;12.414385690854424;0
55014;BME280;40916;51.632;5.552;2022-08-21T02:47:05;1012.6674838493102;;;12.394283376289696;0
55014;BME280;40916;51.632;5.552;2022-08-21T02:48:06;1012.6787215580338;;;12.367474737409221;0
55014;BME280;40916;51.632;5.552;2022-08-21T02:49:05;1012.5976831355588;;;12.313838392295484;0
55014;BME280;40916;51.632;5.552;2022-08-21T02:50:06;1012.7232792286146;;;12.313838392295484;0
55014;BME280;40916;51.632;5.552;2022-08-21T02:51:06;1012.6790269926535;;;12.287010670457896;0
55014;BME280;40916;51.632;5.552;2022-08-21T02:52:05;1012.6873774312265;;;12.266885694856732;0
55014;BME280;40916;51.632;5.552;2022-08-21T02:53:06;1012.5941533191472;;;12.233336089114605;0
55014;BME280;40916;51.632;5.552;2022-08-21T02:54:05;1012.6237010427943;;;12.206489213927789;0
55014;BME280;40916;51.632;5.552;2022-08-21T02:55:06;1012.6957058506699;;;12.193063376769015;0
55014;BME280;40916;51.632;5.552;2022-08-21T02:56:08;1012.672568890482;;;12.15949177724896;0
55014;BME280;40916;51.632;5.552;2022-08-21T02:57:06;1012.7029799660597;;;12.139344008069347;0
55014;BME280;40916;51.632;5.552;2022-08-21T02:58:06;1012.6059331372555;;;12.105756366301264;0
55014;BME280;40916;51.632;5.552;2022-08-21T02:59:06;1012.6529815674288;;;12.099037632865684;0
55014;BME280;40916;51.632;5.552;2022-08-21T03:00:06;1012.645465863498;;;12.07215867806078;0
55014;BME280;40916;51.632;5.552;2022-08-21T03:01:06;1012.6175319356882;;;12.03182816903831;0
55014;BME280;40916;51.632;5.552;2022-08-21T03:02:06;1012.663583047393;;;12.01838144157718;0
55014;BME280;40916;51.632;5.552;2022-08-21T03:03:07;1012.5969266254909;;;11.991483144010257;0
55014;BME280;40916;51.632;5.552;2022-08-21T03:04:07;1012.6151492583172;;;11.964578382945994;0
55014;BME280;40916;51.632;5.552;2022-08-21T03:06:07;1012.5843690475017;;;11.930938330169091;0
55014;BME280;40916;51.632;5.552;2022-08-21T03:07:07;1012.6303616488;;;11.917479474292868;0
55014;BME280;40916;51.632;5.552;2022-08-21T03:08:08;1012.6072198842489;;;11.910749438405027;0
55014;BME280;40916;51.632;5.552;2022-08-21T03:09:07;1012.5978400258075;;;11.897288150104256;0
55014;BME280;40916;51.632;5.552;2022-08-21T03:10:08;1012.5404769781993;;;11.883825238935263;0
55014;BME280;40916;51.632;5.552;2022-08-21T03:11:07;1012.5810730155268;;;11.883825238935263;0
55014;BME280;40916;51.632;5.552;2022-08-21T03:12:07;1012.516324661543;;;11.870360703895592;0
55014;BME280;40916;51.632;5.552;2022-08-21T03:13:08;1012.5706735060836;;;11.863627827110765;0
55014;BME280;40916;51.632;5.552;2022-08-21T03:14:08;1012.5237055405335;;;11.870360703895592;0
55014;BME280;40916;51.632;5.552;2022-08-21T03:15:10;1012.6417996696345;;;11.870360703895592;0
55014;BME280;40916;51.632;5.552;2022-08-21T03:16:08;1012.6206638504625;;;11.877093174461947;0
55014;BME280;40916;51.632;5.552;2022-08-21T03:17:08;1012.7102423217735;;;11.883825238935263;0
55014;BME280;40916;51.632;5.552;2022-08-21T03:18:08;1012.6571933217023;;;11.924209104839196;0
55014;BME280;40916;51.632;5.552;2022-08-21T03:19:08;1012.5634724906107;;;11.964578382945994;0
55014;BME280;40916;51.632;5.552;2022-08-21T03:20:09;1012.6220025290495;;;12.011657472702584;0
55014;BME280;40916;51.632;5.552;2022-08-21T03:21:08;1012.6361605727205;;;12.058716786287096;0
55014;BME280;40916;51.632;5.552;2022-08-21T03:22:09;1012.6677506831033;;;12.099037632865684;0
55014;BME280;40916;51.632;5.552;2022-08-21T03:23:09;1012.5810360178398;;;12.112474697878046;0
55014;BME280;40916;51.632;5.552;2022-08-21T03:24:09;1012.622600429916;;;12.11919262771968;0
55014;BME280;40916;51.632;5.552;2022-08-21T03:25:09;1012.652225647672;;;12.1460603322058;0
55014;BME280;40916;51.632;5.552;2022-08-21T03:26:09;1012.5959573014869;;;12.166206898402297;0
55014;BME280;40916;51.632;5.552;2022-08-21T03:27:09;1012.5728642943196;;;12.15949177724896;0
55014;BME280;40916;51.632;5.552;2022-08-21T03:28:10;1012.6125970536319;;;12.179635938588682;0
55014;BME280;40916;51.632;5.552;2022-08-21T03:29:09;1012.583985068097;;;12.186349857868056;0
55014;BME280;40916;51.632;5.552;2022-08-21T03:30:10;1012.5609176800031;;;12.206489213927789;0
55014;BME280;40916;51.632;5.552;2022-08-21T03:31:09;1012.5009021388561;;;12.199776495414596;0
55014;BME280;40916;51.632;5.552;2022-08-21T03:32:10;1012.4602560341085;;;12.172921618807809;0
55014;BME280;40916;51.632;5.552;2022-08-21T03:33:10;1012.5636845526607;;;12.199776495414596;0
55014;BME280;40916;51.632;5.552;2022-08-21T03:34:10;1012.4778170179452;;;12.193063376769015;0
55014;BME280;40916;51.632;5.552;2022-08-21T03:35:10;1012.5387588543655;;;12.206489213927789;0
55014;BME280;40916;51.632;5.552;2022-08-21T03:36:10;1012.5479845624984;;;12.193063376769015;0
55014;BME280;40916;51.632;5.552;2022-08-21T03:37:10;1012.5101255501936;;;12.186349857868056;0
55014;BME280;40916;51.632;5.552;2022-08-21T03:38:11;1012.5516775923603;;;12.193063376769015;0
55014;BME280;40916;51.632;5.552;2022-08-21T03:39:10;1012.4906870421366;;;12.152776255224556;0
55014;BME280;40916;51.632;5.552;2022-08-21T03:40:11;1012.5441981158854;;;12.139344008069347;0
55014;BME280;40916;51.632;5.552;2022-08-21T03:41:11;1012.4304948057455;;;12.092318497447618;0
55014;BME280;40916;51.632;5.552;2022-08-21T03:42:11;1012.4830152189072;;;12.07215867806078;0
55014;BME280;40916;51.632;5.552;2022-08-21T03:43:11;1012.5992410329119;;;12.058716786287096;0
55014;BME280;40916;51.632;5.552;2022-08-21T03:44:11;1012.5481710228357;;;12.011657472702584;0
55014;BME280;40916;51.632;5.552;2022-08-21T03:45:11;1012.512999995391;;;11.998208324043556;0
55014;BME280;40916;51.632;5.552;2022-08-21T03:46:11;1012.4989936702918;;;11.978031571913537;0
55014;BME280;40916;51.632;5.552;2022-08-21T03:47:11;1012.5117957464247;;;11.964578382945994;0
55014;BME280;40916;51.632;5.552;2022-08-21T03:48:11;1012.5282815779134;;;11.951123576110117;0
55014;BME280;40916;51.632;5.552;2022-08-21T03:49:12;1012.5226139791974;;;11.937667150407567;0
55014;BME280;40916;51.632;5.552;2022-08-21T03:50:12;1012.4891154215852;;;11.910749438405027;0
55014;BME280;40916;51.632;5.552;2022-08-21T03:51:12;1012.4834296833194;;;11.897288150104256;0
55014;BME280;40916;51.632;5.552;2022-08-21T03:52:12;1012.4646585220452;;;11.870360703895592;0
55014;BME280;40916;51.632;5.552;2022-08-21T03:53:13;1012.4878060440377;;;11.877093174461947;0
55014;BME280;40916;51.632;5.552;2022-08-21T03:54:12;1012.5190080981116;;;11.863627827110765;0
55014;BME280;40916;51.632;5.552;2022-08-21T03:55:12;1012.462287128791;;;11.829957345515663;0
55014;BME280;40916;51.632;5.552;2022-08-21T03:56:12;1012.4360740326405;;;11.80301363549357;0
55014;BME280;40916;51.632;5.552;2022-08-21T03:57:13;1012.4377178549374;;;11.789539336132123;0
55014;BME280;40916;51.632;5.552;2022-08-21T03:58:13;1012.4487872206859;;;11.789539336132123;0
55014;BME280;40916;51.632;5.552;2022-08-21T03:59:13;1012.4729730031258;;;11.80301363549357;0
55014;BME280;40916;51.632;5.552;2022-08-21T04:00:13;1012.4823935566967;;;11.816486304952278;0
55014;BME280;40916;51.632;5.552;2022-08-21T04:01:13;1012.3696559159861;;;11.80301363549357;0
55014;BME280;40916;51.632;5.552;2022-08-21T04:02:13;1012.471323539111;;;11.816486304952278;0
55014;BME280;40916;51.632;5.552;2022-08-21T04:03:13;1012.4864555667723;;;11.843426758190308;0
55014;BME280;40916;51.632;5.552;2022-08-21T04:04:13;1012.4868011503795;;;11.870360703895592;0
55014;BME280;40916;51.632;5.552;2022-08-21T04:05:14;1012.46866706688;;;11.897288150104256;0
55014;BME280;40916;51.632;5.552;2022-08-21T04:06:13;1012.5041590826971;;;11.937667150407567;0
55014;BME280;40916;51.632;5.552;2022-08-21T04:07:14;1012.4647918936369;;;11.971305179600943;0
55014;BME280;40916;51.632;5.552;2022-08-21T04:08:14;1012.5166914605029;;;11.998208324043556;0
55014;BME280;40916;51.632;5.552;2022-08-21T04:09:14;1012.4873538221564;;;12.025105006980983;0
55014;BME280;40916;51.632;5.552;2022-08-21T04:10:14;1012.4921744353563;;;12.058716786287096;0
55014;BME280;40916;51.632;5.552;2022-08-21T04:11:14;1012.46086287629;;;12.07215867806078;0
55014;BME280;40916;51.632;5.552;2022-08-21T04:12:14;1012.5468558556141;;;12.105756366301264;0
55014;BME280;40916;51.632;5.552;2022-08-21T04:13:14;1012.5063305090009;;;12.132627282691814;0
55014;BME280;40916;51.632;5.552;2022-08-21T04:14:14;1012.508263293292;;;12.172921618807809;0
55014;BME280;40916;51.632;5.552;2022-08-21T04:15:15;1012.4750505667918;;;12.199776495414596;0
55014;BME280;40916;51.632;5.552;2022-08-21T04:16:15;1012.4852071560884;;;12.21991345104869;0